Costa Fortuna — IBNY — position and weather

sailwx.info

Track history (hours):
 
Tides and Currents Weather Stations Pressure Air Temp Water Temp Dewpoint Dewpoint Depression Visibility Wind Speed Wind Dir Waves Ship Positions

Costa Fortuna

Last reported at 2019-Nov-10 09:00 UTC. Time now 2019-Nov-20 09:23 UTC.
Position N 38°46' E 015°10'.
Warning: this ship's position is 10 days out of date.

Length 273 m; draft 8.3 m.

Type: Ship. MMSI: 247094800.

Date/timePositionNaut miles runAvg speedWind from/ knotsBaromVisibWave heightAir tempDewpointWater temp
2019-Nov-10 09:00N 38°46' E 015°10'37210.6
2019-Nov-08 22:00N 43°16' E 009°29'918.8
2019-Nov-08 21:30N 43°25' E 009°26'1018.9
2019-Nov-08 21:00N 43°34' E 009°22'1019.6
2019-Nov-08 20:30N 43°43' E 009°18'4514.9
2019-Nov-08 17:30N 44°25' E 008°55'0 0.0
2019-Nov-08 16:27N 44°25' E 008°55'0 0.0
2019-Nov-08 10:59N 44°25' E 008°55'0 0.0
2019-Nov-08 09:28N 44°25' E 008°55'0 0.0
2019-Nov-08 08:58N 44°25' E 008°55'0 0.0
2019-Nov-08 08:28N 44°25' E 008°55'0 0.0
2019-Nov-08 06:58N 44°25' E 008°55'47 6.3
2019-Nov-07 23:30N 43°43' E 009°26'510.3
2019-Nov-07 23:00N 43°44' E 009°33'1610.8
2019-Nov-07 21:30N 43°51' E 009°54'16 2.6
2019-Nov-07 15:29N 44°06' E 009°50'0 0.0
2019-Nov-07 14:29N 44°06' E 009°50'0 0.0
2019-Nov-07 11:59N 44°06' E 009°50'0 0.0
2019-Nov-07 10:59N 44°06' E 009°50'0 0.0
2019-Nov-07 07:31N 44°06' E 009°50'4611.5
2019-Nov-07 03:30N 43°21' E 009°43'1019.1
2019-Nov-07 03:00N 43°11' E 009°41'1020.1
2019-Nov-07 02:30N 43°01' E 009°40'87 3.3
2019-Nov-06 00:00N 41°38' E 010°16'32715.8
2019-Nov-05 03:16N 40°15' E 003°17'173 9.9
2019-Nov-04 09:51N 39°27' W 000°19'7 1.6
2019-Nov-04 05:30N 39°27' W 000°11'510.6
2019-Nov-04 05:01N 39°30' W 000°05'11014.7
2019-Nov-03 21:30N 40°43' E 001°43'612.9
2019-Nov-03 21:00N 40°47' E 001°49'37 9.3
2019-Nov-03 17:00N 41°21' E 002°10'0 0.0
2019-Nov-03 15:00N 41°21' E 002°10'0 0.0
2019-Nov-03 14:30N 41°21' E 002°10'0 0.0
2019-Nov-03 13:30N 41°21' E 002°10'0 0.0
2019-Nov-03 10:00N 41°21' E 002°10'0 0.0
2019-Nov-03 08:00N 41°21' E 002°10'0 0.1
2019-Nov-03 06:30N 41°21' E 002°10'3 5.2
2019-Nov-03 06:00N 41°18' E 002°10'5111.4
2019-Nov-03 01:30N 41°33' E 003°16'168 6.9
2019-Nov-02 01:14N 42°58' E 006°32'419.0
2019-Nov-02 01:00N 43°00' E 006°37'918.8
2019-Nov-02 00:30N 43°05' E 006°48'918.2
2019-Nov-02 00:00N 43°10' E 006°58'918.2
2019-Nov-01 23:30N 43°16' E 007°08'918.4
2019-Nov-01 23:00N 43°21' E 007°19'918.3
2019-Nov-01 22:30N 43°26' E 007°29'918.2
2019-Nov-01 22:00N 43°32' E 007°39'918.2
2019-Nov-01 21:30N 43°37' E 007°49'918.3
2019-Nov-01 21:00N 43°43' E 007°59'918.1
2019-Nov-01 20:30N 43°49' E 008°08'918.0
2019-Nov-01 20:00N 43°55' E 008°18'917.9
2019-Nov-01 19:30N 44°01' E 008°27'918.3
2019-Nov-01 19:00N 44°07' E 008°37'918.0
2019-Nov-01 18:30N 44°12' E 008°46'815.6
2019-Nov-01 18:00N 44°17' E 008°55'611.3
2019-Nov-01 17:30N 44°23' E 008°57'2 4.3
2019-Nov-01 16:59N 44°25' E 008°55'0 0.0
2019-Nov-01 16:29N 44°25' E 008°55'0 0.0
2019-Nov-01 15:59N 44°25' E 008°55'0 0.0
2019-Nov-01 15:29N 44°25' E 008°55'0 0.0
2019-Nov-01 14:59N 44°25' E 008°55'0 0.0
2019-Nov-01 14:29N 44°25' E 008°55'0 0.0
2019-Nov-01 13:59N 44°25' E 008°55'0 0.0
2019-Nov-01 13:29N 44°25' E 008°55'0 0.0
2019-Nov-01 12:59N 44°25' E 008°55'0 0.0
2019-Nov-01 12:29N 44°25' E 008°55'0 0.0
2019-Nov-01 11:59N 44°25' E 008°55'0 0.0
2019-Nov-01 11:29N 44°25' E 008°55'0 0.0
2019-Nov-01 10:59N 44°25' E 008°55'0 0.0
2019-Nov-01 10:29N 44°25' E 008°55'0 0.0
2019-Nov-01 09:59N 44°25' E 008°55'0 0.0
2019-Nov-01 09:29N 44°25' E 008°55'0 0.0
2019-Nov-01 08:59N 44°25' E 008°55'0 0.0
2019-Nov-01 08:29N 44°25' E 008°55'0 0.0
2019-Nov-01 07:59N 44°25' E 008°55'0 0.0
2019-Nov-01 07:29N 44°25' E 008°55'0 0.0
2019-Nov-01 06:59N 44°25' E 008°55'0 0.9
2019-Nov-01 06:30N 44°24' E 008°55'2 4.1
2019-Nov-01 06:00N 44°23' E 008°57'2 5.0
2019-Nov-01 05:31N 44°21' E 008°59'510.9
2019-Nov-01 05:00N 44°15' E 008°57'510.8
2019-Nov-01 04:30N 44°10' E 008°55'010.5
2019-Nov-01 04:29N 44°10' E 008°55'510.7
2019-Nov-01 04:00N 44°05' E 008°54'510.7
2019-Nov-01 03:30N 43°60' E 008°52'510.9
2019-Nov-01 03:00N 43°54' E 008°51'510.7
2019-Nov-01 02:30N 43°49' E 008°50'510.7
2019-Nov-01 02:00N 43°44' E 008°53'5 9.7
2019-Nov-01 01:30N 43°41' E 008°58'611.1
2019-Nov-01 01:00N 43°41' E 009°06'611.4
2019-Nov-01 00:30N 43°42' E 009°14'611.4
2019-Nov-01 00:00N 43°42' E 009°22'611.3
2019-Oct-31 23:30N 43°43' E 009°29'611.1
2019-Oct-31 23:00N 43°44' E 009°37'611.1
2019-Oct-31 22:30N 43°46' E 009°44'611.6
2019-Oct-31 22:00N 43°49' E 009°51'510.0
2019-Oct-31 21:30N 43°54' E 009°54'611.3
2019-Oct-31 21:00N 43°59' E 009°53'611.1
2019-Oct-31 20:30N 44°05' E 009°51'2 3.4
2019-Oct-31 19:59N 44°06' E 009°50'0 0.0
2019-Oct-31 19:29N 44°06' E 009°50'0 0.0
2019-Oct-31 18:59N 44°06' E 009°50'0 0.0
2019-Oct-31 18:29N 44°06' E 009°50'0 0.0
2019-Oct-31 17:59N 44°06' E 009°50'0 0.0
2019-Oct-31 17:29N 44°06' E 009°50'0 0.0
2019-Oct-31 16:59N 44°06' E 009°50'0 0.0
2019-Oct-31 16:29N 44°06' E 009°50'0 0.0
2019-Oct-31 15:59N 44°06' E 009°50'0 0.0
2019-Oct-31 15:29N 44°06' E 009°50'0 0.0
2019-Oct-31 14:59N 44°06' E 009°50'0 0.0
2019-Oct-31 14:29N 44°06' E 009°50'0 0.0
2019-Oct-31 13:59N 44°06' E 009°50'010.3
2019-Oct-31 13:57N 44°06' E 009°50'0 0.5
2019-Oct-31 13:29N 44°06' E 009°50'0 0.0
2019-Oct-31 12:59N 44°06' E 009°50'0 0.0
2019-Oct-31 12:29N 44°06' E 009°50'0 0.0
2019-Oct-31 11:59N 44°06' E 009°50'0 0.0
2019-Oct-31 11:29N 44°06' E 009°50'0 0.0
2019-Oct-31 10:59N 44°06' E 009°50'0 0.0
2019-Oct-31 10:29N 44°06' E 009°50'0 0.0
2019-Oct-31 09:59N 44°06' E 009°50'0 0.0
2019-Oct-31 09:29N 44°06' E 009°50'  
Track history (hours):
 
Tides and Currents Weather Stations Pressure Air Temp Water Temp Dewpoint Dewpoint Depression Visibility Wind Speed Wind Dir Waves Ship Positions

Costa Fortuna

Last reported at 2019-Nov-10 09:00 UTC. Time now 2019-Nov-20 09:23 UTC.
Position N 38°46' E 015°10'.
Warning: this ship's position is 10 days out of date.

Length 273 m; draft 8.3 m.

Type: Ship. MMSI: 247094800.

Date/timePositionNaut miles runAvg speedWind from/ knotsBaromVisibWave heightAir tempDewpointWater temp
2019-Nov-10 09:00N 38°46' E 015°10'37210.6
2019-Nov-08 22:00N 43°16' E 009°29'918.8
2019-Nov-08 21:30N 43°25' E 009°26'1018.9
2019-Nov-08 21:00N 43°34' E 009°22'1019.6
2019-Nov-08 20:30N 43°43' E 009°18'4514.9
2019-Nov-08 17:30N 44°25' E 008°55'0 0.0
2019-Nov-08 16:27N 44°25' E 008°55'0 0.0
2019-Nov-08 10:59N 44°25' E 008°55'0 0.0
2019-Nov-08 09:28N 44°25' E 008°55'0 0.0
2019-Nov-08 08:58N 44°25' E 008°55'0 0.0
2019-Nov-08 08:28N 44°25' E 008°55'0 0.0
2019-Nov-08 06:58N 44°25' E 008°55'47 6.3
2019-Nov-07 23:30N 43°43' E 009°26'510.3
2019-Nov-07 23:00N 43°44' E 009°33'1610.8
2019-Nov-07 21:30N 43°51' E 009°54'16 2.6
2019-Nov-07 15:29N 44°06' E 009°50'0 0.0
2019-Nov-07 14:29N 44°06' E 009°50'0 0.0
2019-Nov-07 11:59N 44°06' E 009°50'0 0.0
2019-Nov-07 10:59N 44°06' E 009°50'0 0.0
2019-Nov-07 07:31N 44°06' E 009°50'4611.5
2019-Nov-07 03:30N 43°21' E 009°43'1019.1
2019-Nov-07 03:00N 43°11' E 009°41'1020.1
2019-Nov-07 02:30N 43°01' E 009°40'87 3.3
2019-Nov-06 00:00N 41°38' E 010°16'32715.8
2019-Nov-05 03:16N 40°15' E 003°17'173 9.9
2019-Nov-04 09:51N 39°27' W 000°19'7 1.6
2019-Nov-04 05:30N 39°27' W 000°11'510.6
2019-Nov-04 05:01N 39°30' W 000°05'11014.7
2019-Nov-03 21:30N 40°43' E 001°43'612.9
2019-Nov-03 21:00N 40°47' E 001°49'37 9.3
2019-Nov-03 17:00N 41°21' E 002°10'0 0.0
2019-Nov-03 15:00N 41°21' E 002°10'0 0.0
2019-Nov-03 14:30N 41°21' E 002°10'0 0.0
2019-Nov-03 13:30N 41°21' E 002°10'0 0.0
2019-Nov-03 10:00N 41°21' E 002°10'0 0.0
2019-Nov-03 08:00N 41°21' E 002°10'0 0.1
2019-Nov-03 06:30N 41°21' E 002°10'3 5.2
2019-Nov-03 06:00N 41°18' E 002°10'5111.4
2019-Nov-03 01:30N 41°33' E 003°16'168 6.9
2019-Nov-02 01:14N 42°58' E 006°32'419.0
2019-Nov-02 01:00N 43°00' E 006°37'918.8
2019-Nov-02 00:30N 43°05' E 006°48'918.2
2019-Nov-02 00:00N 43°10' E 006°58'918.2
2019-Nov-01 23:30N 43°16' E 007°08'918.4
2019-Nov-01 23:00N 43°21' E 007°19'918.3
2019-Nov-01 22:30N 43°26' E 007°29'918.2
2019-Nov-01 22:00N 43°32' E 007°39'918.2
2019-Nov-01 21:30N 43°37' E 007°49'918.3
2019-Nov-01 21:00N 43°43' E 007°59'918.1
2019-Nov-01 20:30N 43°49' E 008°08'918.0
2019-Nov-01 20:00N 43°55' E 008°18'917.9
2019-Nov-01 19:30N 44°01' E 008°27'918.3
2019-Nov-01 19:00N 44°07' E 008°37'918.0
2019-Nov-01 18:30N 44°12' E 008°46'815.6
2019-Nov-01 18:00N 44°17' E 008°55'611.3
2019-Nov-01 17:30N 44°23' E 008°57'2 4.3
2019-Nov-01 16:59N 44°25' E 008°55'0 0.0
2019-Nov-01 16:29N 44°25' E 008°55'0 0.0
2019-Nov-01 15:59N 44°25' E 008°55'0 0.0
2019-Nov-01 15:29N 44°25' E 008°55'0 0.0
2019-Nov-01 14:59N 44°25' E 008°55'0 0.0
2019-Nov-01 14:29N 44°25' E 008°55'0 0.0
2019-Nov-01 13:59N 44°25' E 008°55'0 0.0
2019-Nov-01 13:29N 44°25' E 008°55'0 0.0
2019-Nov-01 12:59N 44°25' E 008°55'0 0.0
2019-Nov-01 12:29N 44°25' E 008°55'0 0.0
2019-Nov-01 11:59N 44°25' E 008°55'0 0.0
2019-Nov-01 11:29N 44°25' E 008°55'0 0.0
2019-Nov-01 10:59N 44°25' E 008°55'0 0.0
2019-Nov-01 10:29N 44°25' E 008°55'0 0.0
2019-Nov-01 09:59N 44°25' E 008°55'0 0.0
2019-Nov-01 09:29N 44°25' E 008°55'0 0.0
2019-Nov-01 08:59N 44°25' E 008°55'0 0.0
2019-Nov-01 08:29N 44°25' E 008°55'0 0.0
2019-Nov-01 07:59N 44°25' E 008°55'0 0.0
2019-Nov-01 07:29N 44°25' E 008°55'0 0.0
2019-Nov-01 06:59N 44°25' E 008°55'0 0.9
2019-Nov-01 06:30N 44°24' E 008°55'2 4.1
2019-Nov-01 06:00N 44°23' E 008°57'2 5.0
2019-Nov-01 05:31N 44°21' E 008°59'510.9
2019-Nov-01 05:00N 44°15' E 008°57'510.8
2019-Nov-01 04:30N 44°10' E 008°55'010.5
2019-Nov-01 04:29N 44°10' E 008°55'510.7
2019-Nov-01 04:00N 44°05' E 008°54'510.7
2019-Nov-01 03:30N 43°60' E 008°52'510.9
2019-Nov-01 03:00N 43°54' E 008°51'510.7
2019-Nov-01 02:30N 43°49' E 008°50'510.7
2019-Nov-01 02:00N 43°44' E 008°53'5 9.7
2019-Nov-01 01:30N 43°41' E 008°58'611.1
2019-Nov-01 01:00N 43°41' E 009°06'611.4
2019-Nov-01 00:30N 43°42' E 009°14'611.4
2019-Nov-01 00:00N 43°42' E 009°22'611.3
2019-Oct-31 23:30N 43°43' E 009°29'611.1
2019-Oct-31 23:00N 43°44' E 009°37'611.1
2019-Oct-31 22:30N 43°46' E 009°44'611.6
2019-Oct-31 22:00N 43°49' E 009°51'510.0
2019-Oct-31 21:30N 43°54' E 009°54'611.3
2019-Oct-31 21:00N 43°59' E 009°53'611.1
2019-Oct-31 20:30N 44°05' E 009°51'2 3.4
2019-Oct-31 19:59N 44°06' E 009°50'0 0.0
2019-Oct-31 19:29N 44°06' E 009°50'0 0.0
2019-Oct-31 18:59N 44°06' E 009°50'0 0.0
2019-Oct-31 18:29N 44°06' E 009°50'0 0.0
2019-Oct-31 17:59N 44°06' E 009°50'0 0.0
2019-Oct-31 17:29N 44°06' E 009°50'0 0.0
2019-Oct-31 16:59N 44°06' E 009°50'0 0.0
2019-Oct-31 16:29N 44°06' E 009°50'0 0.0
2019-Oct-31 15:59N 44°06' E 009°50'0 0.0
2019-Oct-31 15:29N 44°06' E 009°50'0 0.0
2019-Oct-31 14:59N 44°06' E 009°50'0 0.0
2019-Oct-31 14:29N 44°06' E 009°50'0 0.0
2019-Oct-31 13:59N 44°06' E 009°50'010.3
2019-Oct-31 13:57N 44°06' E 009°50'0 0.5
2019-Oct-31 13:29N 44°06' E 009°50'0 0.0
2019-Oct-31 12:59N 44°06' E 009°50'0 0.0
2019-Oct-31 12:29N 44°06' E 009°50'0 0.0
2019-Oct-31 11:59N 44°06' E 009°50'0 0.0
2019-Oct-31 11:29N 44°06' E 009°50'0 0.0
2019-Oct-31 10:59N 44°06' E 009°50'0 0.0
2019-Oct-31 10:29N 44°06' E 009°50'0 0.0
2019-Oct-31 09:59N 44°06' E 009°50'0 0.0
2019-Oct-31 09:29N 44°06' E 009°50'  

Dump ship's entire track history